sensor_id;sensor_type;location;lat;lon;timestamp;P1;durP1;ratioP1;P2;durP2;ratioP2
12950;SDS011;6540;50.858;7.232;2022-11-24T00:01:11;4.07;;;3.20;;
12950;SDS011;6540;50.858;7.232;2022-11-24T00:03:41;4.10;;;3.40;;
12950;SDS011;6540;50.858;7.232;2022-11-24T00:06:08;3.80;;;3.30;;
12950;SDS011;6540;50.858;7.232;2022-11-24T00:08:35;5.00;;;3.30;;
12950;SDS011;6540;50.858;7.232;2022-11-24T00:11:03;3.73;;;3.13;;
12950;SDS011;6540;50.858;7.232;2022-11-24T00:13:36;4.07;;;3.27;;
12950;SDS011;6540;50.858;7.232;2022-11-24T00:18:38;3.53;;;2.70;;
12950;SDS011;6540;50.858;7.232;2022-11-24T00:21:05;3.07;;;2.73;;
12950;SDS011;6540;50.858;7.232;2022-11-24T00:23:31;5.83;;;3.53;;
12950;SDS011;6540;50.858;7.232;2022-11-24T00:28:41;3.93;;;3.17;;
12950;SDS011;6540;50.858;7.232;2022-11-24T00:31:19;5.23;;;2.87;;
12950;SDS011;6540;50.858;7.232;2022-11-24T00:33:52;4.30;;;3.20;;
12950;SDS011;6540;50.858;7.232;2022-11-24T00:36:20;3.23;;;2.87;;
12950;SDS011;6540;50.858;7.232;2022-11-24T00:38:47;3.43;;;2.70;;
12950;SDS011;6540;50.858;7.232;2022-11-24T00:41:18;3.23;;;2.70;;
12950;SDS011;6540;50.858;7.232;2022-11-24T00:43:43;3.20;;;2.90;;
12950;SDS011;6540;50.858;7.232;2022-11-24T00:46:08;3.80;;;3.17;;
12950;SDS011;6540;50.858;7.232;2022-11-24T00:48:34;7.30;;;3.07;;
12950;SDS011;6540;50.858;7.232;2022-11-24T00:51:00;4.00;;;3.30;;
12950;SDS011;6540;50.858;7.232;2022-11-24T00:53:27;4.67;;;3.60;;
12950;SDS011;6540;50.858;7.232;2022-11-24T00:55:53;2.90;;;2.63;;
12950;SDS011;6540;50.858;7.232;2022-11-24T00:58:19;3.07;;;2.77;;
12950;SDS011;6540;50.858;7.232;2022-11-24T01:00:44;4.60;;;3.33;;
12950;SDS011;6540;50.858;7.232;2022-11-24T01:03:11;4.03;;;3.07;;
12950;SDS011;6540;50.858;7.232;2022-11-24T01:05:37;3.17;;;2.77;;
12950;SDS011;6540;50.858;7.232;2022-11-24T01:08:04;3.40;;;3.10;;
12950;SDS011;6540;50.858;7.232;2022-11-24T01:10:30;4.03;;;3.13;;
12950;SDS011;6540;50.858;7.232;2022-11-24T01:12:55;3.53;;;3.20;;
12950;SDS011;6540;50.858;7.232;2022-11-24T01:15:21;2.90;;;2.37;;
12950;SDS011;6540;50.858;7.232;2022-11-24T01:17:46;4.17;;;3.43;;
12950;SDS011;6540;50.858;7.232;2022-11-24T01:20:12;3.30;;;2.60;;
12950;SDS011;6540;50.858;7.232;2022-11-24T01:22:37;4.17;;;3.50;;
12950;SDS011;6540;50.858;7.232;2022-11-24T01:25:07;5.00;;;3.00;;
12950;SDS011;6540;50.858;7.232;2022-11-24T01:27:33;3.93;;;3.13;;
12950;SDS011;6540;50.858;7.232;2022-11-24T01:29:59;5.67;;;3.73;;
12950;SDS011;6540;50.858;7.232;2022-11-24T01:32:24;3.20;;;2.60;;
12950;SDS011;6540;50.858;7.232;2022-11-24T01:34:49;5.87;;;3.40;;
12950;SDS011;6540;50.858;7.232;2022-11-24T01:37:15;3.10;;;2.80;;
12950;SDS011;6540;50.858;7.232;2022-11-24T01:39:40;5.73;;;2.93;;
12950;SDS011;6540;50.858;7.232;2022-11-24T01:42:06;4.07;;;3.43;;
12950;SDS011;6540;50.858;7.232;2022-11-24T01:44:32;3.83;;;2.93;;
12950;SDS011;6540;50.858;7.232;2022-11-24T01:49:27;7.20;;;3.87;;
12950;SDS011;6540;50.858;7.232;2022-11-24T01:52:06;5.87;;;3.10;;
12950;SDS011;6540;50.858;7.232;2022-11-24T01:54:40;4.53;;;3.80;;
12950;SDS011;6540;50.858;7.232;2022-11-24T01:57:14;5.17;;;3.03;;
12950;SDS011;6540;50.858;7.232;2022-11-24T01:59:46;7.80;;;3.47;;
12950;SDS011;6540;50.858;7.232;2022-11-24T02:02:15;4.17;;;3.20;;
12950;SDS011;6540;50.858;7.232;2022-11-24T02:04:41;3.10;;;2.53;;
12950;SDS011;6540;50.858;7.232;2022-11-24T02:07:08;3.97;;;2.80;;
12950;SDS011;6540;50.858;7.232;2022-11-24T02:12:15;4.63;;;2.77;;
12950;SDS011;6540;50.858;7.232;2022-11-24T02:14:41;5.87;;;3.60;;
12950;SDS011;6540;50.858;7.232;2022-11-24T02:17:08;3.40;;;2.73;;
12950;SDS011;6540;50.858;7.232;2022-11-24T02:19:42;3.43;;;3.03;;
12950;SDS011;6540;50.858;7.232;2022-11-24T02:28:20;6.10;;;2.97;;
12950;SDS011;6540;50.858;7.232;2022-11-24T02:30:48;4.80;;;2.57;;
12950;SDS011;6540;50.858;7.232;2022-11-24T02:33:14;3.47;;;2.57;;
12950;SDS011;6540;50.858;7.232;2022-11-24T02:35:39;2.97;;;2.50;;
12950;SDS011;6540;50.858;7.232;2022-11-24T02:38:05;4.07;;;2.80;;
12950;SDS011;6540;50.858;7.232;2022-11-24T02:40:30;5.33;;;3.30;;
12950;SDS011;6540;50.858;7.232;2022-11-24T02:42:57;3.67;;;2.97;;
12950;SDS011;6540;50.858;7.232;2022-11-24T02:45:31;3.40;;;3.07;;
12950;SDS011;6540;50.858;7.232;2022-11-24T02:47:57;3.60;;;3.27;;
12950;SDS011;6540;50.858;7.232;2022-11-24T02:50:22;4.60;;;2.80;;
12950;SDS011;6540;50.858;7.232;2022-11-24T02:52:48;3.73;;;2.83;;
12950;SDS011;6540;50.858;7.232;2022-11-24T02:55:13;3.40;;;3.10;;
12950;SDS011;6540;50.858;7.232;2022-11-24T02:57:39;5.53;;;3.03;;
12950;SDS011;6540;50.858;7.232;2022-11-24T03:00:04;5.90;;;2.90;;
12950;SDS011;6540;50.858;7.232;2022-11-24T03:02:30;4.53;;;2.67;;
12950;SDS011;6540;50.858;7.232;2022-11-24T03:04:56;4.57;;;2.67;;
12950;SDS011;6540;50.858;7.232;2022-11-24T03:07:21;3.77;;;2.40;;
12950;SDS011;6540;50.858;7.232;2022-11-24T03:09:47;3.30;;;2.23;;
12950;SDS011;6540;50.858;7.232;2022-11-24T03:12:12;2.70;;;1.90;;
12950;SDS011;6540;50.858;7.232;2022-11-24T03:14:38;3.43;;;2.83;;
12950;SDS011;6540;50.858;7.232;2022-11-24T03:17:03;2.90;;;2.60;;
12950;SDS011;6540;50.858;7.232;2022-11-24T03:19:28;4.90;;;2.50;;
12950;SDS011;6540;50.858;7.232;2022-11-24T03:21:53;3.23;;;2.40;;
12950;SDS011;6540;50.858;7.232;2022-11-24T03:24:19;4.63;;;2.13;;
12950;SDS011;6540;50.858;7.232;2022-11-24T03:26:44;6.83;;;2.23;;
12950;SDS011;6540;50.858;7.232;2022-11-24T03:29:10;5.47;;;2.97;;
12950;SDS011;6540;50.858;7.232;2022-11-24T03:31:35;4.90;;;3.00;;
12950;SDS011;6540;50.858;7.232;2022-11-24T03:34:00;4.87;;;2.23;;
12950;SDS011;6540;50.858;7.232;2022-11-24T03:36:26;2.53;;;2.33;;
12950;SDS011;6540;50.858;7.232;2022-11-24T03:38:51;6.13;;;2.70;;
12950;SDS011;6540;50.858;7.232;2022-11-24T03:41:17;8.63;;;2.93;;
12950;SDS011;6540;50.858;7.232;2022-11-24T03:43:42;4.90;;;2.60;;
12950;SDS011;6540;50.858;7.232;2022-11-24T03:46:07;7.63;;;2.27;;
12950;SDS011;6540;50.858;7.232;2022-11-24T03:48:33;3.83;;;2.13;;
12950;SDS011;6540;50.858;7.232;2022-11-24T03:50:59;3.57;;;2.27;;
12950;SDS011;6540;50.858;7.232;2022-11-24T03:53:27;10.07;;;2.77;;
12950;SDS011;6540;50.858;7.232;2022-11-24T03:55:53;2.40;;;2.20;;
12950;SDS011;6540;50.858;7.232;2022-11-24T03:58:19;3.97;;;2.10;;
12950;SDS011;6540;50.858;7.232;2022-11-24T04:00:45;6.23;;;2.27;;
12950;SDS011;6540;50.858;7.232;2022-11-24T04:03:12;8.53;;;2.53;;
12950;SDS011;6540;50.858;7.232;2022-11-24T04:05:37;7.80;;;2.13;;
12950;SDS011;6540;50.858;7.232;2022-11-24T04:08:03;8.77;;;2.43;;
12950;SDS011;6540;50.858;7.232;2022-11-24T04:10:30;13.47;;;2.37;;
12950;SDS011;6540;50.858;7.232;2022-11-24T04:12:56;16.03;;;3.37;;
12950;SDS011;6540;50.858;7.232;2022-11-24T04:15:21;9.27;;;2.87;;
12950;SDS011;6540;50.858;7.232;2022-11-24T04:17:47;9.23;;;2.70;;
12950;SDS011;6540;50.858;7.232;2022-11-24T04:20:14;9.93;;;2.80;;
12950;SDS011;6540;50.858;7.232;2022-11-24T04:22:40;4.60;;;2.27;;
12950;SDS011;6540;50.858;7.232;2022-11-24T04:25:06;11.70;;;3.23;;
12950;SDS011;6540;50.858;7.232;2022-11-24T04:27:32;15.37;;;2.53;;
12950;SDS011;6540;50.858;7.232;2022-11-24T04:29:58;10.60;;;3.30;;
12950;SDS011;6540;50.858;7.232;2022-11-24T04:32:24;5.20;;;2.37;;
12950;SDS011;6540;50.858;7.232;2022-11-24T04:34:49;7.87;;;2.17;;
12950;SDS011;6540;50.858;7.232;2022-11-24T04:37:15;4.87;;;2.43;;
12950;SDS011;6540;50.858;7.232;2022-11-24T04:39:42;9.13;;;3.77;;
12950;SDS011;6540;50.858;7.232;2022-11-24T04:42:09;10.93;;;3.70;;
12950;SDS011;6540;50.858;7.232;2022-11-24T04:44:34;11.30;;;2.93;;
12950;SDS011;6540;50.858;7.232;2022-11-24T04:46:59;6.67;;;2.80;;
12950;SDS011;6540;50.858;7.232;2022-11-24T04:49:25;6.67;;;2.47;;
12950;SDS011;6540;50.858;7.232;2022-11-24T04:51:50;12.50;;;3.30;;
12950;SDS011;6540;50.858;7.232;2022-11-24T04:54:16;5.70;;;2.23;;
12950;SDS011;6540;50.858;7.232;2022-11-24T04:56:41;7.77;;;2.67;;
12950;SDS011;6540;50.858;7.232;2022-11-24T04:59:11;6.83;;;2.53;;
12950;SDS011;6540;50.858;7.232;2022-11-24T05:01:40;17.20;;;3.17;;
12950;SDS011;6540;50.858;7.232;2022-11-24T05:04:06;7.83;;;3.23;;
12950;SDS011;6540;50.858;7.232;2022-11-24T05:06:34;7.37;;;2.97;;
12950;SDS011;6540;50.858;7.232;2022-11-24T05:08:59;11.63;;;2.87;;
12950;SDS011;6540;50.858;7.232;2022-11-24T05:11:25;6.23;;;2.47;;
12950;SDS011;6540;50.858;7.232;2022-11-24T05:13:51;8.00;;;2.63;;
12950;SDS011;6540;50.858;7.232;2022-11-24T05:16:17;7.30;;;2.87;;
12950;SDS011;6540;50.858;7.232;2022-11-24T05:18:42;10.10;;;2.37;;
12950;SDS011;6540;50.858;7.232;2022-11-24T05:21:08;4.00;;;2.10;;
12950;SDS011;6540;50.858;7.232;2022-11-24T05:23:33;10.10;;;2.40;;
12950;SDS011;6540;50.858;7.232;2022-11-24T05:25:59;12.70;;;2.97;;
12950;SDS011;6540;50.858;7.232;2022-11-24T05:28:25;10.83;;;2.63;;
12950;SDS011;6540;50.858;7.232;2022-11-24T05:30:50;5.80;;;2.60;;
12950;SDS011;6540;50.858;7.232;2022-11-24T05:33:16;13.40;;;3.23;;
12950;SDS011;6540;50.858;7.232;2022-11-24T05:35:45;11.47;;;3.10;;
12950;SDS011;6540;50.858;7.232;2022-11-24T05:38:15;15.53;;;3.07;;
12950;SDS011;6540;50.858;7.232;2022-11-24T05:40:41;10.00;;;3.10;;
12950;SDS011;6540;50.858;7.232;2022-11-24T05:43:11;6.33;;;2.17;;
12950;SDS011;6540;50.858;7.232;2022-11-24T05:45:37;7.27;;;2.20;;
12950;SDS011;6540;50.858;7.232;2022-11-24T05:48:04;9.20;;;3.40;;
12950;SDS011;6540;50.858;7.232;2022-11-24T05:50:30;9.53;;;2.63;;
12950;SDS011;6540;50.858;7.232;2022-11-24T05:52:57;10.00;;;2.93;;
12950;SDS011;6540;50.858;7.232;2022-11-24T05:55:26;14.23;;;4.00;;
12950;SDS011;6540;50.858;7.232;2022-11-24T05:57:56;3.87;;;2.40;;
12950;SDS011;6540;50.858;7.232;2022-11-24T06:00:22;8.43;;;3.17;;
12950;SDS011;6540;50.858;7.232;2022-11-24T06:02:48;7.50;;;2.13;;
12950;SDS011;6540;50.858;7.232;2022-11-24T06:05:13;8.23;;;2.63;;
12950;SDS011;6540;50.858;7.232;2022-11-24T06:07:38;10.40;;;3.07;;
12950;SDS011;6540;50.858;7.232;2022-11-24T06:10:04;14.63;;;3.33;;
12950;SDS011;6540;50.858;7.232;2022-11-24T06:12:29;10.53;;;2.47;;
12950;SDS011;6540;50.858;7.232;2022-11-24T06:14:55;7.87;;;2.37;;
12950;SDS011;6540;50.858;7.232;2022-11-24T06:17:20;6.80;;;2.43;;
12950;SDS011;6540;50.858;7.232;2022-11-24T06:19:45;9.07;;;2.93;;
12950;SDS011;6540;50.858;7.232;2022-11-24T06:22:14;5.60;;;3.20;;
12950;SDS011;6540;50.858;7.232;2022-11-24T06:24:39;13.33;;;3.23;;
12950;SDS011;6540;50.858;7.232;2022-11-24T06:27:05;7.23;;;2.40;;
12950;SDS011;6540;50.858;7.232;2022-11-24T06:29:30;15.57;;;2.83;;
12950;SDS011;6540;50.858;7.232;2022-11-24T06:31:56;10.63;;;2.77;;
12950;SDS011;6540;50.858;7.232;2022-11-24T06:34:21;10.93;;;3.23;;
12950;SDS011;6540;50.858;7.232;2022-11-24T06:36:48;10.30;;;2.50;;
12950;SDS011;6540;50.858;7.232;2022-11-24T06:39:13;7.63;;;2.43;;
12950;SDS011;6540;50.858;7.232;2022-11-24T06:41:39;5.40;;;2.20;;
12950;SDS011;6540;50.858;7.232;2022-11-24T06:44:04;7.27;;;2.40;;
12950;SDS011;6540;50.858;7.232;2022-11-24T06:46:30;6.23;;;2.77;;
12950;SDS011;6540;50.858;7.232;2022-11-24T06:48:55;5.93;;;2.40;;
12950;SDS011;6540;50.858;7.232;2022-11-24T06:51:20;4.10;;;2.30;;
12950;SDS011;6540;50.858;7.232;2022-11-24T06:53:46;4.90;;;2.47;;
12950;SDS011;6540;50.858;7.232;2022-11-24T06:56:12;8.13;;;3.50;;
12950;SDS011;6540;50.858;7.232;2022-11-24T06:58:51;5.43;;;2.67;;
12950;SDS011;6540;50.858;7.232;2022-11-24T07:01:21;6.60;;;2.43;;
12950;SDS011;6540;50.858;7.232;2022-11-24T07:03:51;3.83;;;2.20;;
12950;SDS011;6540;50.858;7.232;2022-11-24T07:06:18;5.40;;;2.03;;
12950;SDS011;6540;50.858;7.232;2022-11-24T07:08:44;4.00;;;2.57;;
12950;SDS011;6540;50.858;7.232;2022-11-24T07:11:11;6.50;;;2.77;;
12950;SDS011;6540;50.858;7.232;2022-11-24T07:13:39;20.70;;;7.33;;
12950;SDS011;6540;50.858;7.232;2022-11-24T07:16:19;29.37;;;12.93;;
12950;SDS011;6540;50.858;7.232;2022-11-24T07:18:46;67.00;;;26.83;;
12950;SDS011;6540;50.858;7.232;2022-11-24T07:21:13;52.40;;;19.80;;
12950;SDS011;6540;50.858;7.232;2022-11-24T07:23:40;48.07;;;18.87;;
12950;SDS011;6540;50.858;7.232;2022-11-24T07:26:06;44.73;;;20.43;;
12950;SDS011;6540;50.858;7.232;2022-11-24T07:28:32;37.83;;;16.57;;
12950;SDS011;6540;50.858;7.232;2022-11-24T07:30:58;37.20;;;16.10;;
12950;SDS011;6540;50.858;7.232;2022-11-24T07:33:24;38.27;;;16.73;;
12950;SDS011;6540;50.858;7.232;2022-11-24T07:35:53;39.43;;;15.23;;
12950;SDS011;6540;50.858;7.232;2022-11-24T07:38:18;32.97;;;16.00;;
12950;SDS011;6540;50.858;7.232;2022-11-24T07:40:44;22.17;;;9.87;;
12950;SDS011;6540;50.858;7.232;2022-11-24T07:43:11;20.40;;;7.50;;
12950;SDS011;6540;50.858;7.232;2022-11-24T07:45:36;13.60;;;6.73;;
12950;SDS011;6540;50.858;7.232;2022-11-24T07:48:02;19.27;;;8.37;;
12950;SDS011;6540;50.858;7.232;2022-11-24T07:50:27;21.43;;;9.03;;
12950;SDS011;6540;50.858;7.232;2022-11-24T07:52:53;16.63;;;6.30;;
12950;SDS011;6540;50.858;7.232;2022-11-24T07:55:18;13.47;;;6.13;;
12950;SDS011;6540;50.858;7.232;2022-11-24T07:57:43;16.17;;;5.20;;
12950;SDS011;6540;50.858;7.232;2022-11-24T08:00:09;10.43;;;4.50;;
12950;SDS011;6540;50.858;7.232;2022-11-24T08:02:35;7.47;;;4.23;;
12950;SDS011;6540;50.858;7.232;2022-11-24T08:05:00;7.83;;;4.10;;
12950;SDS011;6540;50.858;7.232;2022-11-24T08:07:26;8.93;;;3.77;;
12950;SDS011;6540;50.858;7.232;2022-11-24T08:09:51;5.63;;;3.33;;
12950;SDS011;6540;50.858;7.232;2022-11-24T08:12:17;8.30;;;3.50;;
12950;SDS011;6540;50.858;7.232;2022-11-24T08:14:49;6.40;;;3.03;;
12950;SDS011;6540;50.858;7.232;2022-11-24T08:17:15;5.27;;;2.67;;
12950;SDS011;6540;50.858;7.232;2022-11-24T08:19:42;6.80;;;3.03;;
12950;SDS011;6540;50.858;7.232;2022-11-24T08:22:07;8.13;;;2.67;;
12950;SDS011;6540;50.858;7.232;2022-11-24T08:24:33;6.37;;;3.00;;
12950;SDS011;6540;50.858;7.232;2022-11-24T08:26:58;5.93;;;3.63;;
12950;SDS011;6540;50.858;7.232;2022-11-24T08:29:27;7.53;;;3.63;;
12950;SDS011;6540;50.858;7.232;2022-11-24T08:31:54;7.10;;;3.37;;
12950;SDS011;6540;50.858;7.232;2022-11-24T08:34:21;10.17;;;3.20;;
12950;SDS011;6540;50.858;7.232;2022-11-24T08:36:47;5.27;;;3.30;;
12950;SDS011;6540;50.858;7.232;2022-11-24T08:39:13;6.40;;;3.20;;
12950;SDS011;6540;50.858;7.232;2022-11-24T08:41:38;5.20;;;2.57;;
12950;SDS011;6540;50.858;7.232;2022-11-24T08:44:03;7.97;;;3.30;;
12950;SDS011;6540;50.858;7.232;2022-11-24T08:46:29;8.80;;;3.30;;
12950;SDS011;6540;50.858;7.232;2022-11-24T08:48:54;7.77;;;3.43;;
12950;SDS011;6540;50.858;7.232;2022-11-24T08:51:21;7.00;;;3.17;;
12950;SDS011;6540;50.858;7.232;2022-11-24T08:53:48;5.40;;;3.43;;
12950;SDS011;6540;50.858;7.232;2022-11-24T08:56:13;9.73;;;3.43;;
12950;SDS011;6540;50.858;7.232;2022-11-24T08:58:39;8.17;;;3.37;;
12950;SDS011;6540;50.858;7.232;2022-11-24T09:01:09;7.47;;;2.60;;
12950;SDS011;6540;50.858;7.232;2022-11-24T09:03:36;6.07;;;3.20;;
12950;SDS011;6540;50.858;7.232;2022-11-24T09:06:03;4.67;;;2.70;;
12950;SDS011;6540;50.858;7.232;2022-11-24T09:08:30;6.07;;;3.23;;
12950;SDS011;6540;50.858;7.232;2022-11-24T09:11:00;6.83;;;3.77;;
12950;SDS011;6540;50.858;7.232;2022-11-24T09:13:32;7.50;;;2.53;;
12950;SDS011;6540;50.858;7.232;2022-11-24T09:16:05;6.27;;;2.47;;
12950;SDS011;6540;50.858;7.232;2022-11-24T09:18:33;4.57;;;2.27;;
12950;SDS011;6540;50.858;7.232;2022-11-24T09:21:05;2.97;;;2.60;;
12950;SDS011;6540;50.858;7.232;2022-11-24T09:23:32;5.97;;;2.27;;
12950;SDS011;6540;50.858;7.232;2022-11-24T09:26:40;6.67;;;2.50;;
12950;SDS011;6540;50.858;7.232;2022-11-24T09:28:47;7.87;;;2.77;;
12950;SDS011;6540;50.858;7.232;2022-11-24T09:31:15;4.93;;;2.50;;
12950;SDS011;6540;50.858;7.232;2022-11-24T09:33:42;6.70;;;2.97;;
12950;SDS011;6540;50.858;7.232;2022-11-24T09:36:08;3.07;;;2.40;;
12950;SDS011;6540;50.858;7.232;2022-11-24T09:38:33;7.13;;;2.50;;
12950;SDS011;6540;50.858;7.232;2022-11-24T09:41:43;2.60;;;1.97;;
12950;SDS011;6540;50.858;7.232;2022-11-24T09:49:37;6.03;;;2.67;;
12950;SDS011;6540;50.858;7.232;2022-11-24T09:52:06;8.63;;;2.27;;
12950;SDS011;6540;50.858;7.232;2022-11-24T09:54:36;4.33;;;2.30;;
12950;SDS011;6540;50.858;7.232;2022-11-24T09:57:10;4.33;;;2.10;;
12950;SDS011;6540;50.858;7.232;2022-11-24T09:59:38;3.43;;;2.03;;
12950;SDS011;6540;50.858;7.232;2022-11-24T10:02:08;6.57;;;2.63;;
12950;SDS011;6540;50.858;7.232;2022-11-24T10:04:43;4.37;;;2.20;;
12950;SDS011;6540;50.858;7.232;2022-11-24T10:20:26;6.60;;;1.80;;
12950;SDS011;6540;50.858;7.232;2022-11-24T10:25:52;3.63;;;2.23;;
12950;SDS011;6540;50.858;7.232;2022-11-24T10:28:21;6.40;;;2.90;;
12950;SDS011;6540;50.858;7.232;2022-11-24T10:31:28;5.20;;;2.33;;
12950;SDS011;6540;50.858;7.232;2022-11-24T10:34:08;4.87;;;1.70;;
12950;SDS011;6540;50.858;7.232;2022-11-24T10:36:48;4.23;;;2.33;;
12950;SDS011;6540;50.858;7.232;2022-11-24T10:42:17;1.67;;;1.57;;
12950;SDS011;6540;50.858;7.232;2022-11-24T10:44:43;5.97;;;1.70;;
12950;SDS011;6540;50.858;7.232;2022-11-24T10:47:18;2.90;;;1.97;;
12950;SDS011;6540;50.858;7.232;2022-11-24T10:52:48;8.10;;;1.93;;
12950;SDS011;6540;50.858;7.232;2022-11-24T10:55:20;11.20;;;2.37;;
12950;SDS011;6540;50.858;7.232;2022-11-24T10:57:45;5.17;;;2.20;;
12950;SDS011;6540;50.858;7.232;2022-11-24T11:02:45;9.77;;;1.63;;
12950;SDS011;6540;50.858;7.232;2022-11-24T11:07:50;3.43;;;1.90;;
12950;SDS011;6540;50.858;7.232;2022-11-24T11:10:42;4.07;;;1.67;;
12950;SDS011;6540;50.858;7.232;2022-11-24T11:13:27;5.40;;;2.03;;
12950;SDS011;6540;50.858;7.232;2022-11-24T11:15:54;7.40;;;2.13;;
12950;SDS011;6540;50.858;7.232;2022-11-24T11:18:21;5.63;;;1.63;;
12950;SDS011;6540;50.858;7.232;2022-11-24T11:20:55;4.53;;;1.40;;
12950;SDS011;6540;50.858;7.232;2022-11-24T11:23:34;9.73;;;2.50;;
12950;SDS011;6540;50.858;7.232;2022-11-24T11:28:57;7.27;;;2.43;;
12950;SDS011;6540;50.858;7.232;2022-11-24T11:31:26;7.23;;;1.60;;
12950;SDS011;6540;50.858;7.232;2022-11-24T11:33:53;6.23;;;1.70;;
12950;SDS011;6540;50.858;7.232;2022-11-24T11:36:22;5.17;;;2.03;;
12950;SDS011;6540;50.858;7.232;2022-11-24T11:38:48;8.50;;;2.03;;
12950;SDS011;6540;50.858;7.232;2022-11-24T11:41:23;7.60;;;1.80;;
12950;SDS011;6540;50.858;7.232;2022-11-24T11:43:56;4.33;;;1.77;;
12950;SDS011;6540;50.858;7.232;2022-11-24T11:46:43;6.07;;;1.83;;
12950;SDS011;6540;50.858;7.232;2022-11-24T11:49:10;6.27;;;2.00;;
12950;SDS011;6540;50.858;7.232;2022-11-24T11:51:40;5.57;;;1.87;;
12950;SDS011;6540;50.858;7.232;2022-11-24T11:57:07;4.20;;;1.50;;
12950;SDS011;6540;50.858;7.232;2022-11-24T12:02:17;6.23;;;1.47;;
12950;SDS011;6540;50.858;7.232;2022-11-24T12:04:58;3.33;;;1.77;;
12950;SDS011;6540;50.858;7.232;2022-11-24T12:10:16;8.07;;;2.60;;
12950;SDS011;6540;50.858;7.232;2022-11-24T12:26:17;6.27;;;2.67;;
12950;SDS011;6540;50.858;7.232;2022-11-24T12:48:58;5.73;;;2.53;;
12950;SDS011;6540;50.858;7.232;2022-11-24T12:51:31;5.37;;;1.87;;
12950;SDS011;6540;50.858;7.232;2022-11-24T12:54:04;10.53;;;2.20;;
12950;SDS011;6540;50.858;7.232;2022-11-24T12:56:42;4.90;;;1.70;;
12950;SDS011;6540;50.858;7.232;2022-11-24T13:05:21;5.27;;;1.67;;
12950;SDS011;6540;50.858;7.232;2022-11-24T13:07:47;6.40;;;1.83;;
12950;SDS011;6540;50.858;7.232;2022-11-24T13:13:07;5.27;;;2.00;;
12950;SDS011;6540;50.858;7.232;2022-11-24T13:16:09;5.77;;;2.07;;
12950;SDS011;6540;50.858;7.232;2022-11-24T13:18:43;3.53;;;1.70;;
12950;SDS011;6540;50.858;7.232;2022-11-24T13:24:17;4.73;;;1.77;;
12950;SDS011;6540;50.858;7.232;2022-11-24T13:43:17;4.53;;;1.93;;
12950;SDS011;6540;50.858;7.232;2022-11-24T13:58:28;3.90;;;1.60;;
12950;SDS011;6540;50.858;7.232;2022-11-24T14:14:43;6.47;;;2.17;;
12950;SDS011;6540;50.858;7.232;2022-11-24T14:19:45;4.97;;;1.80;;
12950;SDS011;6540;50.858;7.232;2022-11-24T14:24:44;10.80;;;2.20;;
12950;SDS011;6540;50.858;7.232;2022-11-24T14:27:15;3.83;;;1.77;;
12950;SDS011;6540;50.858;7.232;2022-11-24T14:29:50;7.33;;;2.10;;
12950;SDS011;6540;50.858;7.232;2022-11-24T14:32:17;7.90;;;1.87;;
12950;SDS011;6540;50.858;7.232;2022-11-24T14:34:43;4.77;;;2.47;;
12950;SDS011;6540;50.858;7.232;2022-11-24T14:37:08;3.13;;;1.80;;
12950;SDS011;6540;50.858;7.232;2022-11-24T14:39:39;2.73;;;1.83;;
12950;SDS011;6540;50.858;7.232;2022-11-24T14:42:13;7.90;;;1.90;;
12950;SDS011;6540;50.858;7.232;2022-11-24T14:49:55;7.73;;;2.03;;
12950;SDS011;6540;50.858;7.232;2022-11-24T14:52:22;4.07;;;2.30;;
12950;SDS011;6540;50.858;7.232;2022-11-24T14:57:24;7.10;;;1.80;;
12950;SDS011;6540;50.858;7.232;2022-11-24T15:02:50;4.77;;;2.50;;
12950;SDS011;6540;50.858;7.232;2022-11-24T15:05:18;5.03;;;3.00;;
12950;SDS011;6540;50.858;7.232;2022-11-24T15:07:47;3.87;;;1.93;;
12950;SDS011;6540;50.858;7.232;2022-11-24T15:10:18;6.23;;;2.40;;
12950;SDS011;6540;50.858;7.232;2022-11-24T15:13:00;8.90;;;2.27;;
12950;SDS011;6540;50.858;7.232;2022-11-24T15:15:33;4.43;;;2.70;;
12950;SDS011;6540;50.858;7.232;2022-11-24T15:18:01;5.60;;;2.23;;
12950;SDS011;6540;50.858;7.232;2022-11-24T15:20:37;4.37;;;2.57;;
12950;SDS011;6540;50.858;7.232;2022-11-24T15:23:23;5.53;;;2.43;;
12950;SDS011;6540;50.858;7.232;2022-11-24T15:28:20;9.60;;;3.10;;
12950;SDS011;6540;50.858;7.232;2022-11-24T15:30:50;6.73;;;2.53;;
12950;SDS011;6540;50.858;7.232;2022-11-24T15:33:17;6.37;;;2.83;;
12950;SDS011;6540;50.858;7.232;2022-11-24T15:35:43;7.63;;;2.53;;
12950;SDS011;6540;50.858;7.232;2022-11-24T15:38:09;9.10;;;2.10;;
12950;SDS011;6540;50.858;7.232;2022-11-24T15:40:36;2.83;;;2.40;;
12950;SDS011;6540;50.858;7.232;2022-11-24T15:43:02;8.80;;;2.33;;
12950;SDS011;6540;50.858;7.232;2022-11-24T15:45:52;9.37;;;2.50;;
12950;SDS011;6540;50.858;7.232;2022-11-24T15:48:17;10.13;;;2.87;;
12950;SDS011;6540;50.858;7.232;2022-11-24T15:50:43;7.43;;;2.90;;
12950;SDS011;6540;50.858;7.232;2022-11-24T15:53:22;6.90;;;2.13;;
12950;SDS011;6540;50.858;7.232;2022-11-24T15:55:51;6.43;;;2.37;;
12950;SDS011;6540;50.858;7.232;2022-11-24T15:58:17;10.13;;;2.57;;
12950;SDS011;6540;50.858;7.232;2022-11-24T16:00:43;8.57;;;2.17;;
12950;SDS011;6540;50.858;7.232;2022-11-24T16:03:09;6.27;;;2.07;;
12950;SDS011;6540;50.858;7.232;2022-11-24T16:05:36;7.20;;;2.40;;
12950;SDS011;6540;50.858;7.232;2022-11-24T16:08:04;3.87;;;1.80;;
12950;SDS011;6540;50.858;7.232;2022-11-24T16:10:30;7.67;;;2.23;;
12950;SDS011;6540;50.858;7.232;2022-11-24T16:12:58;4.10;;;2.27;;
12950;SDS011;6540;50.858;7.232;2022-11-24T16:15:23;5.00;;;2.13;;
12950;SDS011;6540;50.858;7.232;2022-11-24T16:17:49;5.40;;;2.87;;
12950;SDS011;6540;50.858;7.232;2022-11-24T16:20:14;7.70;;;3.40;;
12950;SDS011;6540;50.858;7.232;2022-11-24T16:22:40;13.10;;;2.90;;
12950;SDS011;6540;50.858;7.232;2022-11-24T16:25:05;8.70;;;2.93;;
12950;SDS011;6540;50.858;7.232;2022-11-24T16:27:31;6.50;;;2.70;;
12950;SDS011;6540;50.858;7.232;2022-11-24T16:29:57;11.47;;;2.70;;
12950;SDS011;6540;50.858;7.232;2022-11-24T16:32:22;5.40;;;2.50;;
12950;SDS011;6540;50.858;7.232;2022-11-24T16:34:48;8.37;;;2.87;;
12950;SDS011;6540;50.858;7.232;2022-11-24T16:37:13;5.97;;;2.83;;
12950;SDS011;6540;50.858;7.232;2022-11-24T16:39:45;7.80;;;2.73;;
12950;SDS011;6540;50.858;7.232;2022-11-24T16:42:10;6.60;;;2.13;;
12950;SDS011;6540;50.858;7.232;2022-11-24T16:44:35;6.13;;;2.33;;
12950;SDS011;6540;50.858;7.232;2022-11-24T16:47:01;6.40;;;2.60;;
12950;SDS011;6540;50.858;7.232;2022-11-24T16:49:26;4.73;;;2.40;;
12950;SDS011;6540;50.858;7.232;2022-11-24T16:51:51;10.70;;;3.13;;
12950;SDS011;6540;50.858;7.232;2022-11-24T16:54:17;6.27;;;2.23;;
12950;SDS011;6540;50.858;7.232;2022-11-24T16:56:42;3.20;;;2.10;;
12950;SDS011;6540;50.858;7.232;2022-11-24T16:59:08;6.97;;;2.63;;
12950;SDS011;6540;50.858;7.232;2022-11-24T17:01:36;6.90;;;2.70;;
12950;SDS011;6540;50.858;7.232;2022-11-24T17:04:03;5.57;;;2.43;;
12950;SDS011;6540;50.858;7.232;2022-11-24T17:06:30;6.93;;;2.90;;
12950;SDS011;6540;50.858;7.232;2022-11-24T17:08:56;5.30;;;2.67;;
12950;SDS011;6540;50.858;7.232;2022-11-24T17:11:22;11.07;;;3.97;;
12950;SDS011;6540;50.858;7.232;2022-11-24T17:13:49;10.93;;;4.93;;
12950;SDS011;6540;50.858;7.232;2022-11-24T17:16:16;9.83;;;5.27;;
12950;SDS011;6540;50.858;7.232;2022-11-24T17:18:43;10.37;;;4.47;;
12950;SDS011;6540;50.858;7.232;2022-11-24T17:21:11;9.67;;;4.20;;
12950;SDS011;6540;50.858;7.232;2022-11-24T17:23:46;7.23;;;4.10;;
12950;SDS011;6540;50.858;7.232;2022-11-24T17:26:12;8.03;;;3.63;;
12950;SDS011;6540;50.858;7.232;2022-11-24T17:28:39;7.07;;;3.10;;
12950;SDS011;6540;50.858;7.232;2022-11-24T17:31:09;10.83;;;3.17;;
12950;SDS011;6540;50.858;7.232;2022-11-24T17:33:38;6.03;;;3.00;;
12950;SDS011;6540;50.858;7.232;2022-11-24T17:36:03;4.27;;;2.97;;
12950;SDS011;6540;50.858;7.232;2022-11-24T17:38:30;5.97;;;4.00;;
12950;SDS011;6540;50.858;7.232;2022-11-24T17:40:56;7.13;;;3.13;;
12950;SDS011;6540;50.858;7.232;2022-11-24T17:43:21;5.77;;;4.93;;
12950;SDS011;6540;50.858;7.232;2022-11-24T17:45:54;7.23;;;3.73;;
12950;SDS011;6540;50.858;7.232;2022-11-24T17:48:21;5.37;;;2.07;;
12950;SDS011;6540;50.858;7.232;2022-11-24T17:50:46;6.73;;;2.60;;